HALAVI2 LLEK-LLEK

Flight info

Callsign HALAVI2
Flight time 0h 43m
Altitude 12000
Route AIRSHOW ROUTE
Aircraft F15/L-SDGRUY/LB1

Departure

Time 2026-04-22 12:02
Airport Tel Nof Air Base (LLEK)

Arrival

Time 2026-04-22 12:46
Airport Tel Nof Air Base (LLEK)
Time Latitude Longitude Altitude Speed Heading
2026-04-22 11:50 31.84730 34.81568 173 ft 0 kts 130°
2026-04-22 11:57 31.84678 34.81685 169 ft 26 kts 97°
2026-04-22 11:58 31.84657 34.81893 168 ft 24 kts 104°
2026-04-22 11:58 31.84698 34.82041 164 ft 14 kts 71°
2026-04-22 11:58 31.84654 34.82116 166 ft 26 kts 148°
2026-04-22 11:58 31.84483 34.82229 170 ft 26 kts 151°
2026-04-22 11:59 31.84325 34.82333 175 ft 33 kts 150°
2026-04-22 11:59 31.84003 34.82541 180 ft 62 kts 151°
2026-04-22 11:59 31.83582 34.82817 194 ft 74 kts 151°
2026-04-22 11:59 31.83202 34.83063 196 ft 53 kts 151°
2026-04-22 12:00 31.82913 34.83247 198 ft 40 kts 161°
2026-04-22 12:00 31.82840 34.83275 201 ft 0 kts 36°
2026-04-22 12:00 31.82864 34.83267 198 ft 6 kts 330°
2026-04-22 12:00 31.82873 34.83262 198 ft 0 kts 329°
2026-04-22 12:01 31.82934 34.83225 201 ft 51 kts 332°
2026-04-22 12:02 31.83627 34.82781 188 ft 171 kts 332°
2026-04-22 12:02 31.84863 34.81908 577 ft 226 kts 325°
2026-04-22 12:02 31.86134 34.80698 1353 ft 234 kts 310°
2026-04-22 12:02 31.86986 34.79025 2426 ft 249 kts 297°
2026-04-22 12:03 31.87778 34.77162 3226 ft 264 kts 297°
2026-04-22 12:03 31.88578 34.75228 4089 ft 260 kts 294°
2026-04-22 12:03 31.89300 34.73233 4957 ft 278 kts 292°
2026-04-22 12:03 31.90189 34.71029 6435 ft 294 kts 297°
2026-04-22 12:04 31.91134 34.69072 8401 ft 239 kts 298°
2026-04-22 12:04 31.91885 34.67536 9499 ft 206 kts 295°
2026-04-22 12:04 31.92607 34.66032 9834 ft 242 kts 297°
2026-04-22 12:04 31.93683 34.64162 10028 ft 282 kts 309°
2026-04-22 12:05 31.95553 34.62962 10361 ft 354 kts 354°
2026-04-22 12:05 31.97847 34.63643 10120 ft 359 kts 18°
2026-04-22 12:05 32.00270 34.64686 10138 ft 384 kts 21°
2026-04-22 12:05 32.02616 34.65988 11174 ft 367 kts 24°
2026-04-22 12:06 32.04967 34.67363 11667 ft 397 kts 25°
2026-04-22 12:06 32.07392 34.68832 11853 ft 375 kts 26°
2026-04-22 12:06 32.09667 34.70251 11890 ft 373 kts 26°
2026-04-22 12:06 32.11972 34.71690 11965 ft 364 kts 26°
2026-04-22 12:07 32.13772 34.72841 11960 ft 394 kts 27°
2026-04-22 12:07 32.16193 34.74309 11955 ft 370 kts 21°
2026-04-22 12:07 32.18500 34.75379 11976 ft 364 kts 16°
2026-04-22 12:07 32.20921 34.76266 12017 ft 345 kts 14°
2026-04-22 12:08 32.23410 34.77020 11998 ft 377 kts 13°
2026-04-22 12:08 32.25812 34.77818 11986 ft 358 kts 14°
2026-04-22 12:08 32.28194 34.78655 11985 ft 344 kts 15°
2026-04-22 12:08 32.30556 34.79527 12008 ft 342 kts 15°
2026-04-22 12:09 32.32909 34.80446 11994 ft 381 kts 15°
2026-04-22 12:09 32.35295 34.81298 11923 ft 345 kts 14°
2026-04-22 12:09 32.37766 34.81937 11941 ft 335 kts
2026-04-22 12:09 32.40161 34.82574 11825 ft 366 kts 11°
2026-04-22 12:10 32.42635 34.83144 11992 ft 343 kts
2026-04-22 12:10 32.44992 34.83528 11949 ft 360 kts
2026-04-22 12:10 32.47596 34.84018 12038 ft 377 kts
2026-04-22 12:10 32.49824 34.84494 11931 ft 335 kts
2026-04-22 12:11 32.52331 34.85066 11981 ft 420 kts
2026-04-22 12:11 32.54760 34.85676 11905 ft 363 kts 12°
2026-04-22 12:11 32.57183 34.86333 11949 ft 357 kts 10°
2026-04-22 12:11 32.58800 34.86775 11985 ft 357 kts 12°
2026-04-22 12:12 32.61091 34.87450 11936 ft 344 kts 12°
2026-04-22 12:12 32.63509 34.88096 11931 ft 365 kts
2026-04-22 12:12 32.65755 34.88601 11906 ft 401 kts
2026-04-22 12:12 32.68302 34.89102 11955 ft 348 kts
2026-04-22 12:13 32.70792 34.89580 11902 ft 389 kts
2026-04-22 12:13 32.73382 34.90002 11957 ft 358 kts
2026-04-22 12:13 32.75883 34.90421 11980 ft 371 kts
2026-04-22 12:13 32.78311 34.90882 11956 ft 352 kts
2026-04-22 12:14 32.80798 34.91365 11982 ft 352 kts
2026-04-22 12:14 32.83253 34.91474 11967 ft 380 kts 346°
2026-04-22 12:14 32.85597 34.90500 12366 ft 360 kts 328°
2026-04-22 12:14 32.87453 34.88435 12791 ft 363 kts 298°
2026-04-22 12:15 32.88617 34.85884 13107 ft 352 kts 307°
2026-04-22 12:15 32.90079 34.83462 13697 ft 374 kts 291°
2026-04-22 12:15 32.90845 34.80398 13934 ft 392 kts 284°
2026-04-22 12:15 32.91534 34.77411 13964 ft 341 kts 285°
2026-04-22 12:16 32.92126 34.74472 13913 ft 371 kts 279°
2026-04-22 12:16 32.92452 34.71513 13969 ft 366 kts 274°
2026-04-22 12:16 32.92074 34.68437 14028 ft 389 kts 246°
2026-04-22 12:16 32.90422 34.65968 14031 ft 371 kts 217°
2026-04-22 12:17 32.88134 34.65117 14062 ft 350 kts 175°
2026-04-22 12:17 32.85867 34.66301 13960 ft 382 kts 139°
2026-04-22 12:17 32.84159 34.68690 14113 ft 367 kts 119°
2026-04-22 12:17 32.83264 34.71571 14137 ft 368 kts 100°
2026-04-22 12:18 32.83305 34.74513 14199 ft 370 kts 72°
2026-04-22 12:18 32.84335 34.77164 14041 ft 338 kts 54°
2026-04-22 12:18 32.86101 34.79238 14054 ft 361 kts 28°
2026-04-22 12:18 32.88416 34.80220 14162 ft 392 kts
2026-04-22 12:19 32.91135 34.79923 14523 ft 438 kts 340°
2026-04-22 12:19 32.93447 34.77861 14315 ft 424 kts 304°
2026-04-22 12:19 32.94554 34.74799 14331 ft 406 kts 277°
2026-04-22 12:19 32.94274 34.71520 14499 ft 397 kts 248°
2026-04-22 12:20 32.92484 34.68816 14343 ft 450 kts 214°
2026-04-22 12:20 32.89367 34.67910 14355 ft 475 kts 176°
2026-04-22 12:20 32.86296 34.69111 14570 ft 466 kts 146°
2026-04-22 12:20 32.84273 34.71789 14242 ft 416 kts 117°
2026-04-22 12:21 32.83662 34.75001 14003 ft 407 kts 80°
2026-04-22 12:21 32.84623 34.77893 14111 ft 355 kts 54°
2026-04-22 12:21 32.86358 34.79988 13903 ft 381 kts 32°
2026-04-22 12:21 32.88722 34.81259 13402 ft 366 kts
2026-04-22 12:22 32.91349 34.81125 13432 ft 396 kts 342°
2026-04-22 12:22 32.93800 34.79512 13723 ft 399 kts 314°
2026-04-22 12:22 32.95127 34.76854 14295 ft 363 kts 282°
2026-04-22 12:22 32.94815 34.73896 14388 ft 379 kts 240°
2026-04-22 12:23 32.92601 34.72578 14496 ft 408 kts 169°
2026-04-22 12:23 32.90897 34.75345 12629 ft 476 kts 71°
2026-04-22 12:23 32.92235 34.78594 10769 ft 380 kts 72°
2026-04-22 12:23 32.92894 34.81077 9392 ft 275 kts 73°
2026-04-22 12:24 32.93557 34.83536 8395 ft 313 kts 70°
2026-04-22 12:24 32.94209 34.85976 7453 ft 328 kts 70°
2026-04-22 12:24 32.94965 34.88618 6520 ft 310 kts 79°
2026-04-22 12:24 32.95261 34.90950 5573 ft 280 kts 85°
2026-04-22 12:25 32.95364 34.93510 4757 ft 284 kts 89°
2026-04-22 12:25 32.95307 34.95889 4064 ft 299 kts 88°
2026-04-22 12:25 32.95228 34.98015 3326 ft 290 kts 92°
2026-04-22 12:25 32.95180 35.00319 2652 ft 282 kts 90°
2026-04-22 12:26 32.94993 35.02439 2044 ft 236 kts 104°
2026-04-22 12:26 32.94016 35.04155 1704 ft 255 kts 146°
2026-04-22 12:26 32.92211 35.04806 1427 ft 277 kts 185°
2026-04-22 12:26 32.90545 35.03849 1009 ft 279 kts 237°
2026-04-22 12:27 32.89431 35.02329 1125 ft 228 kts 231°
2026-04-22 12:27 32.88302 35.01126 1374 ft 248 kts 228°
2026-04-22 12:27 32.86911 34.99644 1488 ft 254 kts 227°
2026-04-22 12:27 32.85679 34.98286 1493 ft 276 kts 226°
2026-04-22 12:28 32.84305 34.96795 1434 ft 237 kts 224°
2026-04-22 12:28 32.83039 34.95401 1480 ft 268 kts 223°
2026-04-22 12:28 32.81461 34.94465 1476 ft 243 kts 196°
2026-04-22 12:28 32.79694 34.94048 1454 ft 260 kts 190°
2026-04-22 12:29 32.77947 34.93768 1450 ft 249 kts 188°
2026-04-22 12:29 32.76155 34.93533 1480 ft 252 kts 187°
2026-04-22 12:29 32.74408 34.93321 1431 ft 252 kts 188°
2026-04-22 12:29 32.72619 34.93103 1470 ft 262 kts 187°
2026-04-22 12:30 32.69058 34.92659 1460 ft 254 kts 191°
2026-04-22 12:30 32.67331 34.92414 1443 ft 271 kts 189°
2026-04-22 12:30 32.65556 34.92075 1458 ft 248 kts 193°
2026-04-22 12:31 32.63800 34.91674 1465 ft 252 kts 195°
2026-04-22 12:31 32.62123 34.91240 1445 ft 261 kts 193°
2026-04-22 12:31 32.60337 34.90819 1503 ft 241 kts 193°
2026-04-22 12:31 32.58533 34.90388 1502 ft 279 kts 195°
2026-04-22 12:32 32.56761 34.89923 1450 ft 244 kts 190°
2026-04-22 12:32 32.53368 34.89178 1455 ft 250 kts 193°
2026-04-22 12:32 32.51601 34.88814 1529 ft 247 kts 191°
2026-04-22 12:33 32.49900 34.88390 1467 ft 240 kts 195°
2026-04-22 12:33 32.48217 34.87917 1455 ft 258 kts 193°
2026-04-22 12:33 32.46392 34.87275 1647 ft 316 kts 203°
2026-04-22 12:33 32.44389 34.86464 1847 ft 308 kts 195°
2026-04-22 12:34 32.42131 34.85772 1765 ft 338 kts 194°
2026-04-22 12:34 32.39864 34.85126 1400 ft 334 kts 193°
2026-04-22 12:34 32.37655 34.84649 1226 ft 305 kts 188°
2026-04-22 12:34 32.35440 34.84369 1409 ft 315 kts 188°
2026-04-22 12:35 32.33585 34.83991 1424 ft 270 kts 191°
2026-04-22 12:35 32.31824 34.83610 1430 ft 239 kts 195°
2026-04-22 12:35 32.30021 34.83159 1445 ft 261 kts 193°
2026-04-22 12:35 32.28338 34.82679 1454 ft 255 kts 194°
2026-04-22 12:36 32.26608 34.82187 1472 ft 249 kts 194°
2026-04-22 12:36 32.24914 34.81676 1424 ft 255 kts 194°
2026-04-22 12:36 32.23222 34.81140 1366 ft 262 kts 195°
2026-04-22 12:36 32.21559 34.80642 1328 ft 261 kts 197°
2026-04-22 12:37 32.19766 34.80114 1410 ft 251 kts 197°
2026-04-22 12:37 32.18057 34.79559 1387 ft 265 kts 198°
2026-04-22 12:37 32.16326 34.78962 1433 ft 263 kts 200°
2026-04-22 12:37 32.14664 34.78361 1417 ft 244 kts 199°
2026-04-22 12:38 32.12959 34.77727 1451 ft 261 kts 196°
2026-04-22 12:38 32.11289 34.77129 1420 ft 253 kts 198°
2026-04-22 12:38 32.09570 34.76503 1461 ft 243 kts 200°
2026-04-22 12:38 32.07860 34.75856 1466 ft 257 kts 201°
2026-04-22 12:39 32.06213 34.75084 1452 ft 269 kts 205°
2026-04-22 12:39 32.03034 34.73458 1418 ft 250 kts 200°
2026-04-22 12:39 32.01280 34.72984 1446 ft 265 kts 189°
2026-04-22 12:40 31.99576 34.73115 1678 ft 264 kts 159°
2026-04-22 12:40 31.97898 34.74114 1810 ft 256 kts 158°
2026-04-22 12:40 31.96489 34.75090 2017 ft 218 kts 144°
2026-04-22 12:40 31.95246 34.76108 1850 ft 229 kts 145°
2026-04-22 12:41 31.93966 34.77201 2184 ft 210 kts 141°
2026-04-22 12:41 31.92680 34.78472 2200 ft 264 kts 143°
2026-04-22 12:41 31.91342 34.79713 2172 ft 231 kts 139°
2026-04-22 12:41 31.90190 34.80875 2163 ft 207 kts 138°
2026-04-22 12:42 31.89123 34.81949 1997 ft 198 kts 140°
2026-04-22 12:42 31.88040 34.82909 1880 ft 193 kts 143°
2026-04-22 12:42 31.86895 34.83851 1769 ft 218 kts 143°
2026-04-22 12:42 31.85712 34.84862 1745 ft 205 kts 141°
2026-04-22 12:43 31.84642 34.85826 1795 ft 177 kts 141°
2026-04-22 12:43 31.83673 34.86772 1806 ft 184 kts 137°
2026-04-22 12:43 31.82693 34.87748 1759 ft 186 kts 141°
2026-04-22 12:43 31.81547 34.88461 1698 ft 186 kts 159°
2026-04-22 12:44 31.80396 34.88517 1586 ft 159 kts 205°
2026-04-22 12:44 31.79442 34.87769 1284 ft 169 kts 236°
2026-04-22 12:44 31.78941 34.86497 1270 ft 172 kts 272°
2026-04-22 12:44 31.79500 34.85373 1197 ft 174 kts 333°
2026-04-22 12:45 31.80506 34.84798 779 ft 171 kts 331°
2026-04-22 12:45 31.81502 34.84201 485 ft 150 kts 330°
2026-04-22 12:45 31.82386 34.83578 394 ft 138 kts 328°
2026-04-22 12:45 31.83287 34.83013 201 ft 151 kts 332°
2026-04-22 12:46 31.83977 34.82554 181 ft 61 kts 331°
2026-04-22 12:46 31.84268 34.82372 176 ft 40 kts 333°
2026-04-22 12:46 31.84371 34.82305 174 ft 1 kts 184°
2026-04-22 12:46 31.84267 34.82366 177 ft 41 kts 151°
2026-04-22 12:47 31.83943 34.82581 181 ft 54 kts 151°
2026-04-22 12:47 31.83644 34.82776 185 ft 45 kts 149°
2026-04-22 12:47 31.83401 34.82931 191 ft 36 kts 152°
2026-04-22 12:47 31.83203 34.83071 196 ft 34 kts 144°
2026-04-22 12:48 31.83007 34.83218 199 ft 31 kts 149°
2026-04-22 12:48 31.82844 34.83316 201 ft 14 kts 172°
2026-04-22 12:48 31.82880 34.83254 198 ft 12 kts 333°
2026-04-22 12:48 31.82886 34.83251 198 ft 0 kts 332°
2026-04-22 12:49 31.82891 34.83248 203 ft 8 kts 332°
2026-04-22 12:49 31.83214 34.83049 225 ft 167 kts 332°
2026-04-22 12:49 31.84803 34.82047 1137 ft 325 kts 330°
2026-04-22 12:50 31.86776 34.80541 2051 ft 303 kts 319°
2026-04-22 12:50 31.87961 34.78524 3154 ft 338 kts 288°
2026-04-22 12:50 31.88691 34.75972 4602 ft 316 kts 292°
2026-04-22 12:50 31.89635 34.73369 6465 ft 358 kts 292°
2026-04-22 12:51 31.90479 34.70863 8634 ft 336 kts 290°
2026-04-22 12:51 31.91445 34.68182 10203 ft 353 kts 291°
2026-04-22 12:51 31.92505 34.65726 10231 ft 342 kts 306°
2026-04-22 12:51 31.94582 34.64171 10036 ft 362 kts 354°
2026-04-22 12:52 31.97006 34.64871 8171 ft 369 kts 21°
2026-04-22 12:52 31.99388 34.66230 5088 ft 396 kts 27°
2026-04-22 12:52 32.00901 34.67204 3440 ft 328 kts 30°
2026-04-22 12:52 32.02815 34.68506 1689 ft 333 kts 29°
2026-04-22 12:53 32.04668 34.69879 1099 ft 295 kts 32°
2026-04-22 12:53 32.06240 34.71131 953 ft 251 kts 31°
2026-04-22 12:53 32.07767 34.72354 710 ft 282 kts 31°
2026-04-22 12:53 32.09052 34.74086 976 ft 307 kts 81°
2026-04-22 12:54 32.07280 34.75789 669 ft 358 kts 180°
2026-04-22 12:54 32.06856 34.74193 1141 ft 362 kts
2026-04-22 12:54 32.08076 34.73390 1329 ft 382 kts 206°
2026-04-22 12:54 32.06181 34.74998 865 ft 389 kts 70°
2026-04-22 12:55 32.08304 34.76139 892 ft 423 kts 317°
2026-04-22 12:55 32.07370 34.73977 1324 ft 362 kts 184°
2026-04-22 12:55 32.05505 34.73681 1765 ft 246 kts 280°
2026-04-22 12:55 32.06674 34.74068 591 ft 342 kts 96°
2026-04-22 12:56 32.06263 34.76263 2559 ft 24 kts 279°
2026-04-22 12:56 32.06555 34.75570 2131 ft 256 kts 347°
2026-04-22 12:56 32.08647 34.75023 1377 ft 278 kts 353°
2026-04-22 12:56 32.10837 34.74011 1174 ft 348 kts 297°
2026-04-22 12:57 32.09860 34.71891 911 ft 369 kts 186°
2026-04-22 12:57 32.07453 34.73617 577 ft 456 kts 114°
2026-04-22 12:57 32.06697 34.76301 957 ft 253 kts 96°
2026-04-22 12:57 32.05995 34.75285 3497 ft 347 kts 233°
2026-04-22 12:58 32.04005 34.72704 4749 ft 487 kts 223°
2026-04-22 12:58 32.01778 34.70255 4105 ft 391 kts 222°
2026-04-22 12:58 31.99775 34.68078 4093 ft 371 kts 220°
2026-04-22 12:58 31.97560 34.66257 4509 ft 380 kts 208°
2026-04-22 12:59 31.95294 34.65399 4734 ft 319 kts 175°
2026-04-22 12:59 31.93108 34.66897 3982 ft 458 kts 131°
2026-04-22 12:59 31.91611 34.70020 3667 ft 430 kts 113°
2026-04-22 12:59 31.90505 34.72902 3565 ft 373 kts 116°
2026-04-22 13:00 31.89330 34.75630 3530 ft 344 kts 116°
2026-04-22 13:00 31.88155 34.77829 3298 ft 299 kts 135°
2026-04-22 13:00 31.86518 34.79438 3478 ft 306 kts 143°
2026-04-22 13:00 31.84975 34.80779 3989 ft 257 kts 144°
2026-04-22 13:01 31.84093 34.82443 3914 ft 283 kts 65°
2026-04-22 13:01 31.85850 34.82656 3568 ft 307 kts 302°
2026-04-22 13:01 31.86338 34.80348 3055 ft 284 kts 264°
2026-04-22 13:01 31.84986 34.78789 2213 ft 288 kts 201°
2026-04-22 13:02 31.83167 34.78221 2371 ft 253 kts 191°
2026-04-22 13:02 31.81627 34.77961 2384 ft 186 kts 187°
2026-04-22 13:02 31.80436 34.78009 1855 ft 189 kts 147°
2026-04-22 13:02 31.79542 34.79221 1427 ft 191 kts 109°
2026-04-22 13:03 31.79351 34.80637 1125 ft 171 kts 69°
2026-04-22 13:03 31.80061 34.81652 737 ft 168 kts
2026-04-22 13:03 31.81172 34.81667 512 ft 155 kts 357°
2026-04-22 13:03 31.82263 34.81714 288 ft 159 kts
2026-04-22 13:04 31.83166 34.81757 197 ft 90 kts
2026-04-22 13:04 31.83646 34.81786 186 ft 65 kts
2026-04-22 13:04 31.84079 34.81807 176 ft 59 kts
2026-04-22 13:04 31.84456 34.81824 172 ft 39 kts 341°
2026-04-22 13:05 31.84511 34.81664 171 ft 19 kts 291°
2026-04-22 13:05 31.84566 34.81658 170 ft 11 kts 326°
2026-04-22 13:05 31.84636 34.81540 169 ft 22 kts 299°
2026-04-22 13:05 31.84696 34.81507 168 ft 13 kts 23°
2026-04-22 13:06 31.84730 34.81561 169 ft 0 kts 117°